トロント/ピアソン の空港の天気 - METARとTAF

トロント・ピアソン国際空港 ( CYYZ / YYZ ) - カナダ オンタリオ州トロント
飛行場実況気象(Metar)
観測時間06/18 03:00 EDT (06/18 07:00 UTC)
風向・風速西南西 3m/s
視程10km以上
天気現象
全天の8割程度の雲 雲底高度 2870m
全天を覆う雲 雲底高度 7620m
気温25℃
湿度74%
気圧1012.6hPa
METARCYYZ 180700Z 24006KT 15SM BKN094 OVC250 25/20 A2991 RMK AC6CI2 SLP126 DENSITY ALT 1900FT
過去の天気等 Google飛行場航空写真 Wunderground天気予報

過去48時間のMETAR

飛行場予報(TAF)
発表時間: 6/18 01:38 EDT (6/18 05:38 UTC)
予報対象時間: 18日2時 EDT ~ 19日8時 EDT
風向・風速西南西 6m/s
視程10km以上
少しの雲 雲底高度 8530m
18日8時 EDT ~ 18日10時 EDT に徐々に
風向・風速西 8m/s 瞬間風速 13m/s
18日13時 EDT から
風向・風速西 8m/s 瞬間風速 13m/s
視程10km以上
全天の8割程度の雲 雲底高度 1520m
18日13時 EDT から 確率 30% で
風向・風速不定 10m/s 瞬間風速 15m/s
視程1610m
天気現象強い雷雨 もや
全天の8割程度の雲 雲底高度 610m
全天を覆う積乱雲 雲底高度 1520m
18日17時 EDT から
風向・風速西北西 8m/s 瞬間風速 13m/s
視程10km以上
天気現象弱いしゅう雨
全天の8割程度の雲 雲底高度 2130m
18日17時 EDT から 確率 30% で
風向・風速不定 10m/s 瞬間風速 15m/s
視程1610m
天気現象強いしゅう雨 もや
全天の8割程度の雲 雲底高度 610m
全天を覆う積乱雲 雲底高度 1520m
18日19時 EDT から
風向・風速北西 8m/s 瞬間風速 13m/s
視程10km以上
少しの雲 雲底高度 2130m
18日20時 EDT ~ 18日22時 EDT に徐々に
風向・風速北 6m/s 瞬間風速 11m/s
19日0時 EDT ~ 19日2時 EDT に徐々に
風向・風速北 6m/s
19日7時 EDT から
風向・風速北北東 5m/s
視程10km以上
なし
TAF CYYZ 180538Z 1806/1912 24012KT P6SM FEW280
BECMG 1812/1814 27015G25KT
FM181700 26015G25KT P6SM BKN050
PROB30 1817/1821 VRB20G30KT 1SM +TSRA BR BKN020 OVC050CB
FM182100 29015G25KT P6SM -SHRA BKN070
PROB30 1821/1823 VRB20G30KT 1SM +SHRA BR BKN020 OVC050CB
FM182300 31015G25KT P6SM FEW070
BECMG 1900/1902 35012G22KT
BECMG 1904/1906 35012KT
FM191100 02010KT P6SM SKC RMK NXT FCST BY 180900Z